METAR podaci zračne luke     ENZV Stavanger Airport, Sola
Temperatura
13°C Temperatura
11°C Točka rosišta
88% Vlaga



Vjetar
3 M/S
7 MPS
11 KM/S
6 Čvorovi



130°
JI
Trenutna situacija

Vedro Vedro
Tlak zraka 1015.92 (hPa) - 30 (inHg)
Vidljivost 6.2 (milje) - 10 (km)
Zračna luka
Kôd zračne luke ENZV

Lokacija: Stavanger Airport, Sola
Udaljenost: 14 (km)

Metar:
ENZV 280020Z 13006KT CAVOK 13/11 Q1016

Vrijeme: 28-06-2022 02:20 CEST